F/V Argentario — FGPE — position and weather

sailwx.info

Track history (hours):
 
Tides and Currents Weather Stations Pressure Air Temp Water Temp Dewpoint Dewpoint Depression Visibility Wind Speed Wind Dir Waves Ship Positions

F/V Argentario

Last reported at 2017-Jan-15 12:20 UTC. Time now 2017-Jan-18 08:03 UTC.
Position N 46°38' W 002°16'.

Length 22 m; draft 3.4 m.

Type: Fishing. MMSI: 228975000.

Date/timePositionNaut miles runAvg speedWind from/ knotsBaromVisibWave heightAir tempDewpointWater temp
2017-Jan-15 12:20N 46°38' W 002°16'6 7.3
2017-Jan-15 11:33N 46°33' W 002°16'8 7.2
2017-Jan-15 10:27N 46°25' W 002°16'6 5.6
2017-Jan-15 09:25N 46°19' W 002°16'0 0.3
2017-Jan-15 08:06N 46°19' W 002°16'2 3.4
2017-Jan-15 07:33N 46°18' W 002°14'2 1.3
2017-Jan-15 06:15N 46°19' W 002°16'1 0.4
2017-Jan-15 03:32N 46°18' W 002°17'0 0.0
2017-Jan-15 01:27N 46°18' W 002°17'0 0.0
2017-Jan-15 00:27N 46°18' W 002°17'4 0.9
2017-Jan-14 20:31N 46°20' W 002°13'9 9.7
2017-Jan-14 19:34N 46°24' W 002°01'9 9.3
2017-Jan-14 18:33N 46°28' W 001°49'1 1.2
2017-Jan-14 17:34N 46°29' W 001°48'8 8.2
2017-Jan-14 16:33N 46°25' W 001°58'9 9.0
2017-Jan-14 15:33N 46°21' W 002°10'5 4.2
2017-Jan-14 14:16N 46°19' W 002°17'0 0.5
2017-Jan-14 13:31N 46°19' W 002°16'0 0.3
2017-Jan-14 12:07N 46°19' W 002°15'1 0.5
2017-Jan-14 10:20N 46°19' W 002°17'2 3.0
2017-Jan-14 09:33N 46°17' W 002°15'1 0.8
2017-Jan-14 08:27N 46°18' W 002°15'1 1.4
2017-Jan-14 07:33N 46°19' W 002°16'2 2.4
2017-Jan-14 06:33N 46°17' W 002°14'2 1.9
2017-Jan-14 05:23N 46°19' W 002°15'1 1.2
2017-Jan-14 04:32N 46°18' W 002°15'2 1.6
2017-Jan-14 03:32N 46°16' W 002°14'0 0.0
2017-Jan-13 23:33N 46°16' W 002°14'0 0.0
2017-Jan-13 22:33N 46°16' W 002°14'0 0.1
2017-Jan-13 21:33N 46°16' W 002°15'0 0.1
2017-Jan-13 20:32N 46°16' W 002°15'0 0.1
2017-Jan-13 18:10N 46°16' W 002°15'0 0.0
2017-Jan-13 17:29N 46°16' W 002°15'0 0.0
2017-Jan-13 16:31N 46°16' W 002°14'3 2.7
2017-Jan-13 15:33N 46°19' W 002°15'1 0.6
2017-Jan-13 14:33N 46°18' W 002°16'0 0.4
2017-Jan-13 13:32N 46°18' W 002°16'7 0.2
2017-Jan-12 07:04N 46°23' W 002°23'1 0.3
2017-Jan-12 05:22N 46°23' W 002°24'1 0.2
2017-Jan-12 03:12N 46°23' W 002°23'2 2.7
2017-Jan-12 02:29N 46°22' W 002°21'0 0.1
2017-Jan-12 01:31N 46°22' W 002°21'0 0.1
2017-Jan-12 00:22N 46°22' W 002°21'0 0.1
2017-Jan-11 21:28N 46°22' W 002°21'0 0.1
2017-Jan-11 20:31N 46°22' W 002°21'0 0.0
2017-Jan-11 19:28N 46°22' W 002°21'6 6.1
2017-Jan-11 18:33N 46°23' W 002°14'9 9.6
2017-Jan-11 17:34N 46°26' W 002°00'9 9.2
2017-Jan-11 16:34N 46°28' W 001°48'1 1.4
2017-Jan-11 15:33N 46°28' W 001°49'10 9.6
2017-Jan-11 14:33N 46°26' W 002°03'10 9.6
2017-Jan-11 13:32N 46°23' W 002°16'5 4.8
2017-Jan-11 12:29N 46°23' W 002°24'2 0.9
2017-Jan-11 10:24N 46°22' W 002°22'1 0.8
2017-Jan-11 08:33N 46°23' W 002°23'1 0.2
2017-Jan-11 06:07N 46°23' W 002°24'0 0.2
2017-Jan-11 04:06N 46°23' W 002°24'7 0.4
2017-Jan-10 10:27N 46°19' W 002°15'6 6.6
2017-Jan-10 09:33N 46°16' W 002°07'3 2.7
2017-Jan-10 08:27N 46°13' W 002°07'2 1.6
2017-Jan-10 07:06N 46°15' W 002°07'2 3.1
2017-Jan-10 06:29N 46°13' W 002°07'1 0.8
2017-Jan-10 04:33N 46°15' W 002°07'1 0.5
2017-Jan-10 02:33N 46°16' W 002°06'0 0.1
2017-Jan-10 00:05N 46°16' W 002°06'0 0.0
2017-Jan-09 23:29N 46°16' W 002°06'0 0.0
2017-Jan-09 22:32N 46°16' W 002°06'0 0.0
2017-Jan-09 21:32N 46°16' W 002°06'0 0.0
2017-Jan-09 19:29N 46°16' W 002°06'0 0.0
2017-Jan-09 18:32N 46°16' W 002°06'0 0.0
2017-Jan-09 17:32N 46°16' W 002°06'0 0.1
2017-Jan-09 16:32N 46°16' W 002°06'0 0.0
2017-Jan-09 15:32N 46°16' W 002°06'0 0.0
2017-Jan-09 14:32N 46°16' W 002°06'0 0.0
2017-Jan-09 13:29N 46°16' W 002°06'0 0.0
2017-Jan-09 12:33N 46°16' W 002°06'1 0.7
2017-Jan-09 11:33N 46°15' W 002°07'2 2.0
2017-Jan-09 10:25N 46°13' W 002°07'1 0.5
2017-Jan-09 07:33N 46°14' W 002°08'0 0.2
2017-Jan-09 05:26N 46°14' W 002°08'1 0.3
2017-Jan-09 03:11N 46°14' W 002°09'0 0.8
2017-Jan-09 02:32N 46°14' W 002°09'0 0.0
2017-Jan-08 19:23N 46°14' W 002°09'0 0.0
2017-Jan-08 18:26N 46°14' W 002°09'0 0.1
2017-Jan-08 17:26N 46°14' W 002°09'0 0.0
2017-Jan-08 15:17N 46°14' W 002°09'0 0.0
2017-Jan-08 14:32N 46°14' W 002°09'2 0.6
2017-Jan-08 11:25N 46°15' W 002°07'11 9.1
2017-Jan-08 10:13N 46°24' W 002°15'6 9.0
2017-Jan-08 09:33N 46°30' W 002°15'10 9.0
2017-Jan-08 08:24N 46°41' W 002°16'5 0.2
2017-Jan-07 09:33N 46°44' W 002°21'0 0.0
2017-Jan-07 08:33N 46°44' W 002°21'0 0.0
2017-Jan-06 09:32N 46°44' W 002°21'0 0.0
2017-Jan-06 08:29N 46°44' W 002°21'0 0.0
2017-Jan-06 07:31N 46°44' W 002°21'  
Track history (hours):
 
Tides and Currents Weather Stations Pressure Air Temp Water Temp Dewpoint Dewpoint Depression Visibility Wind Speed Wind Dir Waves Ship Positions

F/V Argentario

Last reported at 2017-Jan-15 12:20 UTC. Time now 2017-Jan-18 08:03 UTC.
Position N 46°38' W 002°16'.

Length 22 m; draft 3.4 m.

Type: Fishing. MMSI: 228975000.

Date/timePositionNaut miles runAvg speedWind from/ knotsBaromVisibWave heightAir tempDewpointWater temp
2017-Jan-15 12:20N 46°38' W 002°16'6 7.3
2017-Jan-15 11:33N 46°33' W 002°16'8 7.2
2017-Jan-15 10:27N 46°25' W 002°16'6 5.6
2017-Jan-15 09:25N 46°19' W 002°16'0 0.3
2017-Jan-15 08:06N 46°19' W 002°16'2 3.4
2017-Jan-15 07:33N 46°18' W 002°14'2 1.3
2017-Jan-15 06:15N 46°19' W 002°16'1 0.4
2017-Jan-15 03:32N 46°18' W 002°17'0 0.0
2017-Jan-15 01:27N 46°18' W 002°17'0 0.0
2017-Jan-15 00:27N 46°18' W 002°17'4 0.9
2017-Jan-14 20:31N 46°20' W 002°13'9 9.7
2017-Jan-14 19:34N 46°24' W 002°01'9 9.3
2017-Jan-14 18:33N 46°28' W 001°49'1 1.2
2017-Jan-14 17:34N 46°29' W 001°48'8 8.2
2017-Jan-14 16:33N 46°25' W 001°58'9 9.0
2017-Jan-14 15:33N 46°21' W 002°10'5 4.2
2017-Jan-14 14:16N 46°19' W 002°17'0 0.5
2017-Jan-14 13:31N 46°19' W 002°16'0 0.3
2017-Jan-14 12:07N 46°19' W 002°15'1 0.5
2017-Jan-14 10:20N 46°19' W 002°17'2 3.0
2017-Jan-14 09:33N 46°17' W 002°15'1 0.8
2017-Jan-14 08:27N 46°18' W 002°15'1 1.4
2017-Jan-14 07:33N 46°19' W 002°16'2 2.4
2017-Jan-14 06:33N 46°17' W 002°14'2 1.9
2017-Jan-14 05:23N 46°19' W 002°15'1 1.2
2017-Jan-14 04:32N 46°18' W 002°15'2 1.6
2017-Jan-14 03:32N 46°16' W 002°14'0 0.0
2017-Jan-13 23:33N 46°16' W 002°14'0 0.0
2017-Jan-13 22:33N 46°16' W 002°14'0 0.1
2017-Jan-13 21:33N 46°16' W 002°15'0 0.1
2017-Jan-13 20:32N 46°16' W 002°15'0 0.1
2017-Jan-13 18:10N 46°16' W 002°15'0 0.0
2017-Jan-13 17:29N 46°16' W 002°15'0 0.0
2017-Jan-13 16:31N 46°16' W 002°14'3 2.7
2017-Jan-13 15:33N 46°19' W 002°15'1 0.6
2017-Jan-13 14:33N 46°18' W 002°16'0 0.4
2017-Jan-13 13:32N 46°18' W 002°16'7 0.2
2017-Jan-12 07:04N 46°23' W 002°23'1 0.3
2017-Jan-12 05:22N 46°23' W 002°24'1 0.2
2017-Jan-12 03:12N 46°23' W 002°23'2 2.7
2017-Jan-12 02:29N 46°22' W 002°21'0 0.1
2017-Jan-12 01:31N 46°22' W 002°21'0 0.1
2017-Jan-12 00:22N 46°22' W 002°21'0 0.1
2017-Jan-11 21:28N 46°22' W 002°21'0 0.1
2017-Jan-11 20:31N 46°22' W 002°21'0 0.0
2017-Jan-11 19:28N 46°22' W 002°21'6 6.1
2017-Jan-11 18:33N 46°23' W 002°14'9 9.6
2017-Jan-11 17:34N 46°26' W 002°00'9 9.2
2017-Jan-11 16:34N 46°28' W 001°48'1 1.4
2017-Jan-11 15:33N 46°28' W 001°49'10 9.6
2017-Jan-11 14:33N 46°26' W 002°03'10 9.6
2017-Jan-11 13:32N 46°23' W 002°16'5 4.8
2017-Jan-11 12:29N 46°23' W 002°24'2 0.9
2017-Jan-11 10:24N 46°22' W 002°22'1 0.8
2017-Jan-11 08:33N 46°23' W 002°23'1 0.2
2017-Jan-11 06:07N 46°23' W 002°24'0 0.2
2017-Jan-11 04:06N 46°23' W 002°24'7 0.4
2017-Jan-10 10:27N 46°19' W 002°15'6 6.6
2017-Jan-10 09:33N 46°16' W 002°07'3 2.7
2017-Jan-10 08:27N 46°13' W 002°07'2 1.6
2017-Jan-10 07:06N 46°15' W 002°07'2 3.1
2017-Jan-10 06:29N 46°13' W 002°07'1 0.8
2017-Jan-10 04:33N 46°15' W 002°07'1 0.5
2017-Jan-10 02:33N 46°16' W 002°06'0 0.1
2017-Jan-10 00:05N 46°16' W 002°06'0 0.0
2017-Jan-09 23:29N 46°16' W 002°06'0 0.0
2017-Jan-09 22:32N 46°16' W 002°06'0 0.0
2017-Jan-09 21:32N 46°16' W 002°06'0 0.0
2017-Jan-09 19:29N 46°16' W 002°06'0 0.0
2017-Jan-09 18:32N 46°16' W 002°06'0 0.0
2017-Jan-09 17:32N 46°16' W 002°06'0 0.1
2017-Jan-09 16:32N 46°16' W 002°06'0 0.0
2017-Jan-09 15:32N 46°16' W 002°06'0 0.0
2017-Jan-09 14:32N 46°16' W 002°06'0 0.0
2017-Jan-09 13:29N 46°16' W 002°06'0 0.0
2017-Jan-09 12:33N 46°16' W 002°06'1 0.7
2017-Jan-09 11:33N 46°15' W 002°07'2 2.0
2017-Jan-09 10:25N 46°13' W 002°07'1 0.5
2017-Jan-09 07:33N 46°14' W 002°08'0 0.2
2017-Jan-09 05:26N 46°14' W 002°08'1 0.3
2017-Jan-09 03:11N 46°14' W 002°09'0 0.8
2017-Jan-09 02:32N 46°14' W 002°09'0 0.0
2017-Jan-08 19:23N 46°14' W 002°09'0 0.0
2017-Jan-08 18:26N 46°14' W 002°09'0 0.1
2017-Jan-08 17:26N 46°14' W 002°09'0 0.0
2017-Jan-08 15:17N 46°14' W 002°09'0 0.0
2017-Jan-08 14:32N 46°14' W 002°09'2 0.6
2017-Jan-08 11:25N 46°15' W 002°07'11 9.1
2017-Jan-08 10:13N 46°24' W 002°15'6 9.0
2017-Jan-08 09:33N 46°30' W 002°15'10 9.0
2017-Jan-08 08:24N 46°41' W 002°16'5 0.2
2017-Jan-07 09:33N 46°44' W 002°21'0 0.0
2017-Jan-07 08:33N 46°44' W 002°21'0 0.0
2017-Jan-06 09:32N 46°44' W 002°21'0 0.0
2017-Jan-06 08:29N 46°44' W 002°21'0 0.0
2017-Jan-06 07:31N 46°44' W 002°21'  

Dump ship's entire track history